createdAt,value
2018-02-05T00:00:36.025Z,50.53
2018-02-05T00:03:03.584Z,32.43
2018-02-05T00:05:31.099Z,39.70
2018-02-05T00:07:59.431Z,38.53
2018-02-05T00:10:26.991Z,41.83
2018-02-05T00:12:54.543Z,37.17
2018-02-05T00:15:22.112Z,39.27
2018-02-05T00:17:49.642Z,34.40
2018-02-05T00:20:17.209Z,44.50
2018-02-05T00:22:44.799Z,36.13
2018-02-05T00:25:12.413Z,45.87
2018-02-05T00:27:39.940Z,33.50
2018-02-05T00:30:10.675Z,45.10
2018-02-05T00:32:38.224Z,38.67
2018-02-05T00:35:05.777Z,38.53
2018-02-05T00:37:35.197Z,42.63
2018-02-05T00:40:03.499Z,35.70
2018-02-05T00:42:31.041Z,40.37
2018-02-05T00:44:58.588Z,32.10
2018-02-05T00:47:26.919Z,35.40
2018-02-05T00:49:54.445Z,42.23
2018-02-05T00:52:22.019Z,42.70
2018-02-05T00:54:49.544Z,38.07
2018-02-05T00:57:17.071Z,33.97
2018-02-05T00:59:44.638Z,44.60
2018-02-05T01:02:12.931Z,33.27
2018-02-05T01:04:40.511Z,39.37
2018-02-05T01:07:08.060Z,32.83
2018-02-05T01:09:35.655Z,34.43
2018-02-05T01:12:03.143Z,30.13
2018-02-05T01:14:30.701Z,31.07
2018-02-05T01:16:59.011Z,33.30
2018-02-05T01:19:27.330Z,29.03
2018-02-05T01:21:54.899Z,37.33
2018-02-05T01:24:22.428Z,35.87
2018-02-05T01:26:49.959Z,33.33
2018-02-05T01:29:17.501Z,36.93
2018-02-05T01:31:45.038Z,37.17
2018-02-05T01:34:12.605Z,33.40
2018-02-05T01:36:40.917Z,36.30
2018-02-05T01:39:08.487Z,36.87
2018-02-05T01:41:36.885Z,42.30
2018-02-05T01:44:04.439Z,38.93
2018-02-05T01:46:32.205Z,40.37
2018-02-05T01:48:59.805Z,32.10
2018-02-05T01:51:28.231Z,35.97
2018-02-05T01:53:55.786Z,37.23
2018-02-05T01:56:23.337Z,37.67
2018-02-05T01:58:50.884Z,38.27
2018-02-05T02:01:18.464Z,35.40
2018-02-05T02:03:45.987Z,36.97
2018-02-05T02:06:13.559Z,35.80
2018-02-05T02:08:41.101Z,39.53
2018-02-05T02:11:08.703Z,38.30
2018-02-05T02:13:36.235Z,32.37
2018-02-05T02:16:03.786Z,39.50
2018-02-05T02:18:31.266Z,40.47
2018-02-05T02:20:58.859Z,35.83
2018-02-05T02:23:26.441Z,31.63
2018-02-05T02:25:53.997Z,32.67
2018-02-05T02:28:22.325Z,34.80
2018-02-05T02:30:49.858Z,33.57
2018-02-05T02:33:17.429Z,33.40
2018-02-05T02:35:44.961Z,43.93
2018-02-05T02:38:12.492Z,36.07
2018-02-05T02:40:41.189Z,36.93
2018-02-05T02:43:08.721Z,37.40
2018-02-05T02:45:36.265Z,33.10
2018-02-05T02:48:03.813Z,36.60
2018-02-05T02:50:31.361Z,36.40
2018-02-05T02:52:58.889Z,37.10
2018-02-05T02:55:26.448Z,34.63
2018-02-05T02:57:53.975Z,28.60
2018-02-05T03:00:21.550Z,28.50
2018-02-05T03:02:49.840Z,37.63
2018-02-05T03:05:17.373Z,32.90
2018-02-05T03:07:45.691Z,38.63
2018-02-05T03:10:13.238Z,29.27
2018-02-05T03:12:40.756Z,38.77
2018-02-05T03:15:08.317Z,44.70
2018-02-05T03:17:36.615Z,36.97
2018-02-05T03:20:04.165Z,30.20
2018-02-05T03:22:31.691Z,37.13
2018-02-05T03:24:59.206Z,37.23
2018-02-05T03:27:26.795Z,35.00
2018-02-05T03:29:54.323Z,40.87
2018-02-05T03:32:21.888Z,34.90
2018-02-05T03:34:49.460Z,37.43
2018-02-05T03:37:17.030Z,25.60
2018-02-05T03:39:44.559Z,35.97
2018-02-05T03:42:12.939Z,36.63
2018-02-05T03:44:40.499Z,32.63
2018-02-05T03:47:08.070Z,36.20
2018-02-05T03:49:35.628Z,35.30
2018-02-05T03:52:03.155Z,36.63
2018-02-05T03:54:30.716Z,40.37
2018-02-05T03:56:58.216Z,40.83
2018-02-05T03:59:26.583Z,35.83
2018-02-05T04:01:54.141Z,27.60
2018-02-05T04:04:21.687Z,38.73
2018-02-05T04:07:08.195Z,34.23
2018-02-05T04:09:35.775Z,41.57
2018-02-05T04:12:03.306Z,37.93
2018-02-05T04:14:30.865Z,40.63
2018-02-05T04:16:58.439Z,41.37
2018-02-05T04:19:25.972Z,45.20
2018-02-05T04:21:53.520Z,39.57
2018-02-05T04:24:21.069Z,36.97
2018-02-05T04:26:48.632Z,36.80
2018-02-05T04:29:16.196Z,44.23
2018-02-05T04:31:43.718Z,36.83
2018-02-05T04:34:12.014Z,37.37
2018-02-05T04:36:39.642Z,42.07
2018-02-05T04:39:07.127Z,37.17
2018-02-05T04:41:34.704Z,39.47
2018-02-05T04:44:02.203Z,34.53
2018-02-05T04:46:30.618Z,47.70
2018-02-05T04:48:58.903Z,41.50
2018-02-05T04:51:26.457Z,39.10
2018-02-05T04:53:53.980Z,41.03
2018-02-05T04:56:21.533Z,39.10
2018-02-05T04:58:49.058Z,43.17
2018-02-05T05:01:16.612Z,40.53
2018-02-05T05:03:44.164Z,33.50
2018-02-05T05:06:11.736Z,46.83
2018-02-05T05:08:39.256Z,39.53
2018-02-05T05:11:06.861Z,36.80
2018-02-05T05:13:34.443Z,40.57
2018-02-05T05:16:02.468Z,37.67
2018-02-05T05:18:30.835Z,55.33
2018-02-05T05:20:58.385Z,31.40
2018-02-05T05:23:25.949Z,42.27
2018-02-05T05:25:53.537Z,34.13
2018-02-05T05:28:21.074Z,32.33
2018-02-05T05:30:48.887Z,33.37
2018-02-05T05:33:16.448Z,28.70
2018-02-05T05:35:44.792Z,38.50
2018-02-05T05:38:12.413Z,32.93
2018-02-05T05:40:40.571Z,30.20
2018-02-05T05:43:08.872Z,31.03
2018-02-05T05:45:36.443Z,36.50
2018-02-05T05:48:03.961Z,30.43
2018-02-05T05:50:32.831Z,32.43
2018-02-05T05:53:00.400Z,32.93
2018-02-05T05:55:28.699Z,27.67
2018-02-05T05:57:56.344Z,29.57
2018-02-05T06:00:24.694Z,31.73
2018-02-05T06:02:52.142Z,39.30
2018-02-05T06:05:20.498Z,31.70
2018-02-05T06:07:48.029Z,32.87
2018-02-05T06:10:15.592Z,30.93
2018-02-05T06:12:43.117Z,30.10
2018-02-05T06:15:11.436Z,30.30
2018-02-05T06:17:38.989Z,29.37
2018-02-05T06:20:06.542Z,34.17
2018-02-05T06:22:35.209Z,27.50
2018-02-05T06:25:02.778Z,30.50
2018-02-05T06:27:30.348Z,37.40
2018-02-05T06:29:57.877Z,30.50
2018-02-05T06:32:26.195Z,27.80
2018-02-05T06:34:53.719Z,28.10
2018-02-05T06:37:28.256Z,27.07
2018-02-05T06:39:55.845Z,25.07
2018-02-05T06:42:23.401Z,30.13
2018-02-05T06:44:50.923Z,27.67
2018-02-05T06:47:18.475Z,29.50
2018-02-05T06:49:46.000Z,25.43
2018-02-05T06:52:25.475Z,22.67
2018-02-05T06:55:06.573Z,25.13
2018-02-05T06:57:34.135Z,21.67
2018-02-05T07:00:01.667Z,25.53
2018-02-05T07:02:29.284Z,35.57
2018-02-05T07:04:56.847Z,24.03
2018-02-05T07:07:24.336Z,25.80
2018-02-05T07:09:51.903Z,27.73
2018-02-05T07:12:19.428Z,25.90
2018-02-05T07:14:47.756Z,25.80
2018-02-05T07:17:15.283Z,30.30
2018-02-05T07:19:42.838Z,19.30
2018-02-05T07:22:10.323Z,27.60
2018-02-05T07:24:37.911Z,20.50
2018-02-05T07:27:05.456Z,21.00
2018-02-05T07:29:32.984Z,27.23
2018-02-05T07:32:00.545Z,25.07
2018-02-05T07:34:28.077Z,19.40
2018-02-05T07:36:56.394Z,25.93
2018-02-05T07:39:23.908Z,22.13
2018-02-05T07:41:52.979Z,28.70
2018-02-05T07:44:20.507Z,24.47
2018-02-05T07:46:48.072Z,26.13
2018-02-05T07:49:15.623Z,26.77
2018-02-05T07:51:43.143Z,25.83
2018-02-05T07:54:10.704Z,24.33
2018-02-05T07:56:38.231Z,25.63
2018-02-05T07:59:05.771Z,30.00
2018-02-05T08:01:33.278Z,21.47
2018-02-05T08:04:00.860Z,23.33
2018-02-05T08:06:29.344Z,26.63
2018-02-05T08:08:56.884Z,36.60
2018-02-05T08:11:24.470Z,24.90
2018-02-05T08:13:52.001Z,23.97
2018-02-05T08:16:19.537Z,24.87
2018-02-05T08:18:47.057Z,26.00
2018-02-05T08:21:14.599Z,24.60
2018-02-05T08:23:42.121Z,26.80
2018-02-05T08:26:09.663Z,23.03
2018-02-05T08:28:37.945Z,23.73
2018-02-05T08:31:05.507Z,24.37
2018-02-05T08:33:33.043Z,26.33
2018-02-05T08:36:01.327Z,22.00
2018-02-05T08:38:29.647Z,29.47
2018-02-05T08:40:57.187Z,23.77
2018-02-05T08:43:24.704Z,29.87
2018-02-05T08:45:53.019Z,19.87
2018-02-05T08:48:20.594Z,20.33
2018-02-05T08:50:48.158Z,23.83
2018-02-05T08:53:15.685Z,30.47
2018-02-05T08:55:43.263Z,23.63
2018-02-05T08:58:10.832Z,26.83
2018-02-05T09:00:38.385Z,28.20
2018-02-05T09:03:05.898Z,20.50
2018-02-05T09:05:34.145Z,27.20
2018-02-05T09:08:02.495Z,21.73
2018-02-05T09:10:30.013Z,24.60
2018-02-05T09:12:57.564Z,26.30
2018-02-05T09:15:25.855Z,24.80
2018-02-05T09:17:53.406Z,20.37
2018-02-05T09:20:20.926Z,22.57
2018-02-05T09:22:48.473Z,27.40
2018-02-05T09:25:16.002Z,22.40
2018-02-05T09:27:43.563Z,28.70
2018-02-05T09:30:11.090Z,22.33
2018-02-05T09:32:38.644Z,27.47
2018-02-05T09:35:06.945Z,23.33
2018-02-05T09:37:35.232Z,21.80
2018-02-05T09:40:02.800Z,20.23
2018-02-05T09:42:30.328Z,21.17
2018-02-05T09:44:57.844Z,22.00
2018-02-05T09:47:25.399Z,25.70
2018-02-05T09:49:52.919Z,20.13
2018-02-05T09:52:20.476Z,23.67
2018-02-05T09:54:47.998Z,20.50
2018-02-05T09:57:16.262Z,21.60
2018-02-05T09:59:43.811Z,23.83
2018-02-05T10:02:12.122Z,22.70
2018-02-05T10:04:39.647Z,21.53
2018-02-05T10:07:07.965Z,33.57
2018-02-05T10:09:35.480Z,23.40
2018-02-05T10:12:03.028Z,23.67
2018-02-05T10:14:30.551Z,23.47
2018-02-05T10:16:58.105Z,28.73
2018-02-05T10:19:25.627Z,23.10
2018-02-05T10:21:53.196Z,21.63
2018-02-05T10:24:20.711Z,24.17
2018-02-05T10:26:48.261Z,30.60
2018-02-05T10:29:16.040Z,22.77
2018-02-05T10:31:44.347Z,26.03
2018-02-05T10:34:11.896Z,19.17
2018-02-05T10:36:40.184Z,28.67
2018-02-05T10:39:07.728Z,21.43
2018-02-05T10:41:36.007Z,22.30
2018-02-05T10:44:04.316Z,34.77
2018-02-05T10:46:31.830Z,30.30
2018-02-05T10:49:00.129Z,24.33
2018-02-05T10:51:28.125Z,25.10
2018-02-05T10:53:56.576Z,26.63
2018-02-05T10:56:24.141Z,20.10
2018-02-05T10:58:52.428Z,23.67
2018-02-05T11:01:19.955Z,21.30
2018-02-05T11:03:47.491Z,26.37
2018-02-05T11:06:15.791Z,25.40
2018-02-05T11:08:43.301Z,24.27
2018-02-05T11:11:11.629Z,24.27
2018-02-05T11:13:39.156Z,24.40
2018-02-05T11:16:07.476Z,26.33
2018-02-05T11:18:34.998Z,24.27
2018-02-05T11:21:03.267Z,31.27
2018-02-05T11:23:30.820Z,21.93
2018-02-05T11:25:59.124Z,22.33
2018-02-05T11:28:26.635Z,19.13
2018-02-05T11:30:54.188Z,23.47
2018-02-05T11:33:21.750Z,31.17
2018-02-05T11:35:49.303Z,25.90
2018-02-05T11:38:16.810Z,25.23
2018-02-05T11:40:44.285Z,27.13
2018-02-05T11:43:11.852Z,21.20
2018-02-05T11:45:39.363Z,20.33
2018-02-05T11:48:07.663Z,23.40
2018-02-05T11:50:35.158Z,20.43
2018-02-05T11:53:02.719Z,22.23
2018-02-05T11:55:30.234Z,24.13
2018-02-05T11:57:57.779Z,22.33
2018-02-05T12:00:25.303Z,17.60
2018-02-05T12:02:52.863Z,24.83
2018-02-05T12:05:20.375Z,19.53
2018-02-05T12:07:47.895Z,19.93
2018-02-05T12:10:16.196Z,28.33
2018-02-05T12:12:43.732Z,18.37
2018-02-05T12:15:12.037Z,22.00
2018-02-05T12:17:39.548Z,23.00
2018-02-05T12:20:07.079Z,21.27
2018-02-05T12:22:34.588Z,23.30
2018-02-05T12:25:02.559Z,19.30
2018-02-05T12:27:30.827Z,22.93
2018-02-05T12:29:59.125Z,22.70
2018-02-05T12:32:26.632Z,22.53
2018-02-05T12:34:54.169Z,19.37
2018-02-05T12:37:21.676Z,16.77
2018-02-05T12:39:49.974Z,17.57
2018-02-05T12:42:17.496Z,20.47
2018-02-05T12:44:45.810Z,20.87
2018-02-05T12:47:13.807Z,20.27
2018-02-05T12:49:41.344Z,23.43
2018-02-05T12:52:09.355Z,25.27
2018-02-05T12:54:36.877Z,18.17
2018-02-05T12:57:04.418Z,16.07
2018-02-05T12:59:31.941Z,20.10
2018-02-05T13:01:59.495Z,19.47
2018-02-05T13:04:28.686Z,13.90
2018-02-05T13:06:56.221Z,16.03
2018-02-05T13:09:23.742Z,21.60
2018-02-05T13:11:51.284Z,20.30
2018-02-05T13:14:18.792Z,13.13
2018-02-05T13:16:46.325Z,20.17
2018-02-05T13:19:13.853Z,14.87
2018-02-05T13:21:42.113Z,21.10
2018-02-05T13:24:09.711Z,19.80
2018-02-05T13:26:37.189Z,18.47
2018-02-05T13:29:05.715Z,22.70
2018-02-05T13:31:33.999Z,21.07
2018-02-05T13:34:03.135Z,16.40
2018-02-05T13:36:31.516Z,25.23
2018-02-05T13:38:59.052Z,21.27
2018-02-05T13:41:26.606Z,16.97
2018-02-05T13:43:54.172Z,16.43
2018-02-05T13:46:22.460Z,22.93
2018-02-05T13:48:50.015Z,14.60
2018-02-05T13:51:17.531Z,13.10
2018-02-05T13:53:45.855Z,25.90
2018-02-05T13:56:13.369Z,17.33
2018-02-05T13:58:40.901Z,12.83
2018-02-05T14:01:08.450Z,14.53
2018-02-05T14:03:36.000Z,13.70
2018-02-05T14:06:03.516Z,17.67
2018-02-05T14:08:31.816Z,16.70
2018-02-05T14:10:59.335Z,18.20
2018-02-05T14:13:27.624Z,15.73
2018-02-05T14:15:55.140Z,13.00
2018-02-05T14:18:22.708Z,12.90
2018-02-05T14:20:51.035Z,15.00
2018-02-05T14:23:18.696Z,11.80
2018-02-05T14:25:46.172Z,13.97
2018-02-05T14:28:14.486Z,13.67
2018-02-05T14:30:42.788Z,13.13
2018-02-05T14:33:10.308Z,24.50
2018-02-05T14:35:37.852Z,14.70
2018-02-05T14:38:05.362Z,12.27
2018-02-05T14:40:32.902Z,12.57
2018-02-05T14:43:00.448Z,9.80
2018-02-05T14:45:29.364Z,12.60
2018-02-05T14:47:56.876Z,17.97
2018-02-05T14:50:24.435Z,15.00
2018-02-05T14:52:51.962Z,12.97
2018-02-05T14:55:19.507Z,13.70
2018-02-05T14:57:47.036Z,12.10
2018-02-05T15:00:14.568Z,12.20
2018-02-05T15:02:42.872Z,12.77
2018-02-05T15:05:10.625Z,10.47
2018-02-05T15:07:38.160Z,13.20
2018-02-05T15:10:05.686Z,15.67
2018-02-05T15:12:33.239Z,12.73
2018-02-05T15:15:01.466Z,18.63
2018-02-05T15:17:29.764Z,9.20
2018-02-05T15:19:57.277Z,17.67
2018-02-05T15:22:24.803Z,18.60
2018-02-05T15:24:52.273Z,12.77
2018-02-05T15:27:20.612Z,10.80
2018-02-05T15:29:49.279Z,9.00
2018-02-05T15:32:16.792Z,12.00
2018-02-05T15:34:44.335Z,12.73
2018-02-05T15:37:11.852Z,13.30
2018-02-05T15:39:39.381Z,10.73
2018-02-05T15:42:06.904Z,16.93
2018-02-05T15:44:34.516Z,18.23
2018-02-05T15:47:02.863Z,16.27
2018-02-05T15:49:30.395Z,11.47
2018-02-05T15:51:57.928Z,13.70
2018-02-05T15:54:25.489Z,14.03
2018-02-05T15:56:53.007Z,12.10
2018-02-05T15:59:20.544Z,10.30
2018-02-05T16:01:48.097Z,11.13
2018-02-05T16:04:15.662Z,15.73
2018-02-05T16:06:43.183Z,11.07
2018-02-05T16:09:10.721Z,10.20
2018-02-05T16:11:38.265Z,16.67
2018-02-05T16:14:05.869Z,13.33
2018-02-05T16:16:33.367Z,14.73
2018-02-05T16:19:00.902Z,11.77
2018-02-05T16:21:28.428Z,12.60
2018-02-05T16:23:56.552Z,13.40
2018-02-05T16:26:24.060Z,9.33
2018-02-05T16:28:56.528Z,14.27
2018-02-05T16:31:27.163Z,7.97
2018-02-05T16:34:00.199Z,16.30
2018-02-05T16:36:28.319Z,15.07
2018-02-05T16:38:58.536Z,13.33
2018-02-05T16:41:29.537Z,12.27
2018-02-05T16:43:57.769Z,13.40
2018-02-05T16:46:26.407Z,15.93
2018-02-05T16:48:54.695Z,12.20
2018-02-05T16:51:22.258Z,16.10
2018-02-05T16:53:51.742Z,16.20
2018-02-05T16:56:20.281Z,12.93
2018-02-05T16:58:48.679Z,21.10
2018-02-05T17:01:17.490Z,17.50
2018-02-05T17:03:45.422Z,14.07
2018-02-05T17:06:13.770Z,15.10
2018-02-05T17:08:41.397Z,15.17
2018-02-05T17:11:09.199Z,19.20
2018-02-05T17:13:37.855Z,14.73
2018-02-05T17:16:05.586Z,12.43
2018-02-05T17:18:33.165Z,16.37
2018-02-05T17:21:01.173Z,14.67
2018-02-05T17:23:29.244Z,17.27
2018-02-05T17:25:56.877Z,14.17
2018-02-05T17:28:25.456Z,13.40
2018-02-05T17:30:52.995Z,15.20
2018-02-05T17:33:22.433Z,12.83
2018-02-05T17:35:50.773Z,18.43
2018-02-05T17:38:18.344Z,18.93
2018-02-05T17:40:46.811Z,11.17
2018-02-05T17:43:15.156Z,17.27
2018-02-05T17:45:44.441Z,16.50
2018-02-05T17:48:12.030Z,19.43
2018-02-05T17:50:40.262Z,16.47
2018-02-05T17:53:07.850Z,13.23
2018-02-05T17:55:35.566Z,12.50
2018-02-05T17:58:03.945Z,16.33
2018-02-05T18:00:31.461Z,19.80
2018-02-05T18:02:59.024Z,18.60
2018-02-05T18:05:27.331Z,18.23
2018-02-05T18:07:55.812Z,18.47
2018-02-05T18:13:08.916Z,17.43
2018-02-05T18:15:37.265Z,21.73
2018-02-05T18:18:04.808Z,13.97
2018-02-05T18:20:32.335Z,21.40
2018-02-05T18:22:59.898Z,19.27
2018-02-05T18:25:27.507Z,22.53
2018-02-05T18:27:55.039Z,18.47
2018-02-05T18:30:24.592Z,19.80
2018-02-05T18:32:52.883Z,27.93
2018-02-05T18:35:21.040Z,22.13
2018-02-05T18:37:49.556Z,20.07
2018-02-05T18:40:17.094Z,20.70
2018-02-05T18:42:44.675Z,21.23
2018-02-05T18:45:12.160Z,16.10
2018-02-05T18:47:39.733Z,26.20
2018-02-05T18:50:07.263Z,16.60
2018-02-05T18:52:34.836Z,18.90
2018-02-05T18:55:02.389Z,21.60
2018-02-05T18:57:29.937Z,16.83
2018-02-05T18:59:57.527Z,21.17
2018-02-05T19:02:25.061Z,24.00
2018-02-05T19:04:54.589Z,25.67
2018-02-05T19:07:22.179Z,17.83
2018-02-05T19:09:49.789Z,19.27
2018-02-05T19:14:51.807Z,25.33
2018-02-05T19:17:20.108Z,20.53
2018-02-05T19:19:47.721Z,19.03
2018-02-05T19:22:16.127Z,22.40
2018-02-05T19:24:44.643Z,19.77
2018-02-05T19:27:12.244Z,20.07
2018-02-05T19:29:39.792Z,19.63
2018-02-05T19:32:07.380Z,17.17
2018-02-05T19:34:34.925Z,22.27
2018-02-05T19:37:03.256Z,20.50
2018-02-05T19:39:30.846Z,17.60
2018-02-05T19:41:58.388Z,19.03
2018-02-05T19:44:25.946Z,17.07
2018-02-05T19:46:54.279Z,20.73
2018-02-05T19:49:21.906Z,20.60
2018-02-05T19:51:49.519Z,23.20
2018-02-05T19:54:17.073Z,19.20
2018-02-05T19:56:45.183Z,17.27
2018-02-05T19:59:13.516Z,22.40
2018-02-05T20:01:41.075Z,18.40
2018-02-05T20:04:08.641Z,20.93
2018-02-05T20:06:36.285Z,22.30
2018-02-05T20:09:03.843Z,25.03
2018-02-05T20:11:31.408Z,20.27
2018-02-05T20:13:59.928Z,24.90
2018-02-05T20:16:27.506Z,20.90
2018-02-05T20:18:55.092Z,24.30
2018-02-05T20:21:22.649Z,25.60
2018-02-05T20:23:50.265Z,21.63
2018-02-05T20:26:19.378Z,20.80
2018-02-05T20:28:46.994Z,25.13
2018-02-05T20:31:14.578Z,21.27
2018-02-05T20:33:42.175Z,19.43
2018-02-05T20:36:09.715Z,22.23
2018-02-05T20:38:37.246Z,17.80
2018-02-05T20:41:05.589Z,20.83
2018-02-05T20:43:33.139Z,22.13
2018-02-05T20:46:00.668Z,21.27
2018-02-05T20:48:28.205Z,22.73
2018-02-05T20:50:55.830Z,22.27
2018-02-05T20:53:23.405Z,26.23
2018-02-05T20:55:51.007Z,18.73
2018-02-05T20:58:18.653Z,26.70
2018-02-05T21:00:46.587Z,33.00
2018-02-05T21:03:14.224Z,25.87
2018-02-05T21:05:41.801Z,21.40
2018-02-05T21:08:09.364Z,23.20
2018-02-05T21:10:36.911Z,18.47
2018-02-05T21:13:04.492Z,26.43
2018-02-05T21:15:32.160Z,15.87
2018-02-05T21:17:59.738Z,28.47
2018-02-05T21:20:27.273Z,20.00
2018-02-05T21:22:55.662Z,25.77
2018-02-05T21:25:24.044Z,22.30
2018-02-05T21:27:52.395Z,22.87
2018-02-05T21:30:19.954Z,23.23
2018-02-05T21:32:47.529Z,25.47
2018-02-05T21:35:15.096Z,22.60
2018-02-05T21:37:42.676Z,27.00
2018-02-05T21:40:10.220Z,26.67
2018-02-05T21:42:38.567Z,21.80
2018-02-05T21:45:06.149Z,20.70
2018-02-05T21:47:33.725Z,24.47
2018-02-05T21:50:02.041Z,25.77
2018-02-05T21:52:29.610Z,25.93
2018-02-05T21:54:57.138Z,25.17
2018-02-05T21:57:24.719Z,23.20
2018-02-05T21:59:52.260Z,21.97
2018-02-05T22:02:19.796Z,25.53
2018-02-05T22:04:47.359Z,26.53
2018-02-05T22:07:14.894Z,24.20
2018-02-05T22:09:43.300Z,21.80
2018-02-05T22:12:10.856Z,25.43
2018-02-05T22:14:38.534Z,25.53
2018-02-05T22:17:06.866Z,23.53
2018-02-05T22:19:35.777Z,25.93
2018-02-05T22:22:03.322Z,24.10
2018-02-05T22:24:31.681Z,27.30
2018-02-05T22:27:00.016Z,22.23
2018-02-05T22:29:27.561Z,25.13
2018-02-05T22:31:55.091Z,24.10
2018-02-05T22:34:22.635Z,35.97
2018-02-05T22:36:51.705Z,28.17
2018-02-05T22:39:19.266Z,29.13
2018-02-05T22:41:46.832Z,29.40
2018-02-05T22:44:15.155Z,30.53
2018-02-05T22:49:16.719Z,28.40
2018-02-05T22:51:44.223Z,37.30
2018-02-05T22:54:11.794Z,21.30
2018-02-05T22:56:40.149Z,18.60
2018-02-05T22:59:07.717Z,24.93
2018-02-05T23:01:35.251Z,32.37
2018-02-05T23:04:02.811Z,37.67
2018-02-05T23:06:30.400Z,28.37
2018-02-05T23:08:57.906Z,28.53
2018-02-05T23:11:25.467Z,25.10
2018-02-05T23:13:53.026Z,25.63
2018-02-05T23:16:20.577Z,28.67
2018-02-05T23:18:48.132Z,30.93
2018-02-05T23:21:15.663Z,32.83
2018-02-05T23:23:43.213Z,30.93
2018-02-05T23:26:10.756Z,30.33
2018-02-05T23:28:38.320Z,32.40
2018-02-05T23:33:40.674Z,25.73
2018-02-05T23:36:08.227Z,29.70
2018-02-05T23:38:35.746Z,31.90
2018-02-05T23:41:03.303Z,35.00
2018-02-05T23:43:30.853Z,39.73
2018-02-05T23:45:59.056Z,36.40
2018-02-05T23:48:26.570Z,28.30
2018-02-05T23:50:54.131Z,32.60
2018-02-05T23:53:22.420Z,38.60
2018-02-05T23:55:50.746Z,24.20
2018-02-05T23:58:18.278Z,37.97
